Time;durP1;ratioP1;P1;durP2;ratioP2;P2;SDS_P1;SDS_P2;PMS_P1;PMS_P2;Temp;Humidity;BMP_temperature;BMP_pressure;BME280_temperature;BME280_humidity;BME280_pressure;Samples;Min_cycle;Max_cycle;Signal;HPM_P1;HPM_P2
2022/09/08 00:02:08;;;;;;;5.00;3.67;;;15.90;99.90;;;;;;4776621;30;20059;-88
2022/09/08 00:04:34;;;;;;;4.75;3.00;;;16.00;99.90;;;;;;4773582;29;20067;-88
2022/09/08 00:07:01;;;;;;;4.80;3.38;;;15.90;99.90;;;;;;4773277;30;20057;-87
2022/09/08 00:09:30;;;;;;;5.40;3.33;;;16.00;99.90;;;;;;4783603;29;20050;-85
2022/09/08 00:11:57;;;;;;;5.65;3.75;;;16.40;99.90;;;;;;4783255;29;20051;-87
2022/09/08 00:14:23;;;;;;;4.18;2.75;;;15.90;99.90;;;;;;4790967;29;20104;-88
2022/09/08 00:16:50;;;;;;;5.10;3.00;;;15.90;99.90;;;;;;4789070;29;20497;-87
2022/09/08 00:19:16;;;;;;;4.20;2.85;;;15.90;99.90;;;;;;4789134;29;20058;-88
2022/09/08 00:21:42;;;;;;;4.25;2.65;;;15.90;99.90;;;;;;4772516;29;20058;-85
2022/09/08 00:24:08;;;;;;;4.57;2.72;;;15.90;99.90;;;;;;4789664;29;20046;-87
2022/09/08 00:26:34;;;;;;;4.60;3.25;;;15.90;99.90;;;;;;4772167;29;20416;-88
2022/09/08 00:28:59;;;;;;;4.90;2.58;;;15.90;99.90;;;;;;4789768;29;20135;-88
2022/09/08 00:31:25;;;;;;;3.75;2.78;;;15.90;99.90;;;;;;4772552;29;20137;-88
2022/09/08 00:33:51;;;;;;;3.90;2.25;;;15.90;99.90;;;;;;4772466;30;20154;-87
2022/09/08 00:36:17;;;;;;;4.47;2.53;;;15.80;99.90;;;;;;4772082;30;20051;-88
2022/09/08 00:38:50;;;;;;;4.45;2.85;;;15.90;99.90;;;;;;4771964;29;20497;-89
2022/09/08 00:41:16;;;;;;;5.82;3.40;;;15.80;99.90;;;;;;4773310;30;20127;-88
2022/09/08 00:43:45;;;;;;;5.00;3.58;;;15.80;99.90;;;;;;4787332;29;20173;-87
2022/09/08 00:46:16;;;;;;;4.68;2.72;;;15.80;99.90;;;;;;4771979;30;20054;-86
2022/09/08 00:48:52;;;;;;;3.42;2.75;;;16.00;99.90;;;;;;4771950;29;20066;-87
2022/09/08 00:51:20;;;;;;;6.68;3.88;;;15.90;99.90;;;;;;4779338;29;20191;-88
2022/09/08 00:53:47;;;;;;;8.57;6.20;;;16.20;99.90;;;;;;4788188;29;20063;-86
2022/09/08 00:56:13;;;;;;;5.40;3.85;;;16.30;99.90;;;;;;4788224;29;20099;-85
2022/09/08 00:58:39;;;;;;;4.78;3.47;;;15.90;99.90;;;;;;4771934;29;20060;-87
2022/09/08 01:01:06;;;;;;;3.33;2.08;;;15.80;99.90;;;;;;4795756;29;20050;-87
2022/09/08 01:03:33;;;;;;;4.85;3.05;;;15.80;99.90;;;;;;4786501;29;20054;-88
2022/09/08 01:06:18;;;;;;;4.43;2.72;;;15.80;99.90;;;;;;4795464;29;20050;-88
2022/09/08 01:14:45;;;;;;;4.18;2.70;;;15.80;99.90;;;;;;4771799;30;20147;-86
2022/09/08 01:17:21;;;;;;;3.75;2.38;;;15.80;99.90;;;;;;4771761;30;20127;-86
2022/09/08 01:19:48;;;;;;;4.97;3.00;;;15.80;99.90;;;;;;4788572;29;20093;-87
2022/09/08 01:22:35;;;;;;;3.78;2.63;;;15.80;99.90;;;;;;4789314;29;20051;-86
2022/09/08 01:25:16;;;;;;;6.97;3.40;;;15.80;99.90;;;;;;4772041;29;20101;-87
2022/09/08 01:27:44;;;;;;;4.03;3.15;;;15.80;99.90;;;;;;4771268;29;20055;-86
2022/09/08 01:30:10;;;;;;;5.38;3.85;;;15.80;99.90;;;;;;4787889;29;20051;-87
2022/09/08 01:32:40;;;;;;;6.03;3.83;;;15.80;99.90;;;;;;4772844;29;20052;-87
2022/09/08 01:35:06;;;;;;;6.05;3.50;;;16.20;99.90;;;;;;4771023;29;20062;-87
2022/09/08 01:37:32;;;;;;;4.97;3.22;;;15.80;99.90;;;;;;4787561;29;20126;-86
2022/09/08 01:39:58;;;;;;;4.40;3.30;;;15.80;99.90;;;;;;4787977;29;20134;-88
2022/09/08 01:42:24;;;;;;;5.47;4.10;;;15.70;99.90;;;;;;4771292;30;20051;-87
2022/09/08 01:44:50;;;;;;;5.68;3.97;;;15.80;99.90;;;;;;4772190;29;20126;-87
2022/09/08 01:47:16;;;;;;;5.03;3.50;;;15.80;99.90;;;;;;4778193;30;20135;-86
2022/09/08 01:49:42;;;;;;;6.75;3.65;;;16.20;99.90;;;;;;4771673;30;20134;-87
2022/09/08 01:52:08;;;;;;;6.53;5.10;;;15.70;99.90;;;;;;4771216;29;20369;-85
2022/09/08 01:54:34;;;;;;;6.70;4.35;;;16.20;99.90;;;;;;4772145;30;20130;-88
2022/09/08 01:57:00;;;;;;;7.20;4.18;;;15.80;99.90;;;;;;4786977;29;20063;-86
2022/09/08 01:59:26;;;;;;;5.82;3.47;;;15.80;99.90;;;;;;4782530;29;20047;-85
2022/09/08 02:01:53;;;;;;;5.97;3.47;;;15.90;99.90;;;;;;4795884;29;20057;-85
2022/09/08 02:04:19;;;;;;;5.35;3.58;;;15.80;99.90;;;;;;4787395;29;20485;-85
2022/09/08 02:06:45;;;;;;;6.10;3.80;;;15.90;99.90;;;;;;4771647;30;20047;-88
2022/09/08 02:09:12;;;;;;;5.68;3.83;;;15.90;99.90;;;;;;4771778;29;20039;-88
2022/09/08 02:11:38;;;;;;;8.70;4.53;;;15.90;99.90;;;;;;4788531;29;20043;-86
2022/09/08 02:14:04;;;;;;;5.97;4.50;;;15.90;99.90;;;;;;4787310;29;20403;-88
2022/09/08 02:16:30;;;;;;;5.70;4.07;;;15.90;99.90;;;;;;4772431;30;20131;-87
2022/09/08 02:18:56;;;;;;;12.90;6.07;;;16.00;99.90;;;;;;4787467;29;20565;-84
2022/09/08 02:21:27;;;;;;;8.05;5.57;;;16.00;99.90;;;;;;4771896;30;20518;-86
2022/09/08 02:23:54;;;;;;;8.43;5.93;;;16.00;99.90;;;;;;4771054;29;20047;-87
2022/09/08 02:26:26;;;;;;;7.35;4.43;;;16.40;99.90;;;;;;4794872;29;20050;-87
2022/09/08 02:28:53;;;;;;;6.20;3.72;;;16.10;99.90;;;;;;4797779;29;20062;-88
2022/09/08 02:31:20;;;;;;;5.47;3.33;;;16.10;99.90;;;;;;4771627;29;20413;-86
2022/09/08 02:33:46;;;;;;;9.00;5.32;;;16.20;99.90;;;;;;4771268;30;20068;-86
2022/09/08 02:36:12;;;;;;;7.03;4.50;;;16.60;99.90;;;;;;4783778;29;20066;-85
2022/09/08 02:38:38;;;;;;;7.28;4.78;;;16.40;99.90;;;;;;4787094;29;20039;-87
2022/09/08 02:41:06;;;;;;;6.53;4.57;;;16.20;99.90;;;;;;4788100;29;20059;-86
2022/09/08 02:43:35;;;;;;;6.85;4.47;;;16.20;99.90;;;;;;4775316;30;20054;-86
2022/09/08 02:46:06;;;;;;;6.85;4.85;;;16.20;99.90;;;;;;4775367;29;20101;-87
2022/09/08 02:48:32;;;;;;;9.88;6.10;;;16.20;99.90;;;;;;4796958;29;20039;-86
2022/09/08 02:51:03;;;;;;;10.40;6.60;;;16.20;99.90;;;;;;4774565;30;20115;-87
2022/09/08 02:53:30;;;;;;;7.82;4.80;;;16.30;99.90;;;;;;4774120;29;20047;-87
2022/09/08 02:55:57;;;;;;;8.27;5.63;;;16.30;99.90;;;;;;4790002;29;20070;-86
2022/09/08 02:58:22;;;;;;;9.35;5.95;;;16.70;99.90;;;;;;4788771;29;20059;-87
2022/09/08 03:00:49;;;;;;;11.07;6.97;;;16.30;99.90;;;;;;4785830;29;20047;-87
2022/09/08 03:03:15;;;;;;;12.02;6.75;;;16.30;99.90;;;;;;4799125;29;20408;-87
2022/09/08 03:05:41;;;;;;;15.73;10.38;;;16.40;99.90;;;;;;4790364;29;20043;-87
2022/09/08 03:08:08;;;;;;;16.60;11.25;;;16.40;99.90;;;;;;4774639;30;20074;-87
2022/09/08 03:10:35;;;;;;;11.65;7.80;;;16.20;99.90;;;;;;4773944;29;20431;-87
2022/09/08 03:13:01;;;;;;;11.48;7.10;;;16.50;99.90;;;;;;4789218;29;20043;-88
2022/09/08 03:15:29;;;;;;;16.63;10.93;;;16.50;99.90;;;;;;4790357;29;20449;-86
2022/09/08 03:17:55;;;;;;;15.80;8.80;;;16.50;99.90;;;;;;4795204;29;20130;-88
2022/09/08 03:20:22;;;;;;;11.18;8.10;;;16.30;99.90;;;;;;4789666;29;20051;-87
2022/09/08 03:22:49;;;;;;;17.58;9.18;;;16.60;99.90;;;;;;4773967;30;20097;-88
2022/09/08 03:25:17;;;;;;;16.33;11.40;;;16.60;99.90;;;;;;4773668;29;20130;-85
2022/09/08 03:27:43;;;;;;;17.38;11.13;;;16.60;99.90;;;;;;4789008;29;20047;-86
2022/09/08 03:30:11;;;;;;;17.85;10.77;;;16.60;99.90;;;;;;4789586;29;20049;-87
2022/09/08 03:32:39;;;;;;;11.65;7.90;;;16.60;99.90;;;;;;4788921;29;20405;-87
2022/09/08 03:35:07;;;;;;;11.98;7.55;;;16.60;99.90;;;;;;4773695;30;20088;-88
2022/09/08 03:37:34;;;;;;;10.88;6.30;;;16.70;99.90;;;;;;4790001;29;20047;-87
2022/09/08 03:40:03;;;;;;;9.27;6.20;;;16.70;99.90;;;;;;4789565;29;20051;-88
2022/09/08 03:42:36;;;;;;;9.38;6.95;;;16.70;99.90;;;;;;4773496;29;20047;-88
2022/09/08 03:45:09;;;;;;;10.27;6.68;;;16.70;99.90;;;;;;4773298;30;20552;-86
2022/09/08 03:47:35;;;;;;;9.38;6.45;;;16.70;99.90;;;;;;4774129;29;20386;-88
2022/09/08 03:50:02;;;;;;;8.85;5.93;;;16.70;99.90;;;;;;4788545;29;20065;-87
2022/09/08 03:52:28;;;;;;;11.23;6.70;;;16.70;99.90;;;;;;4788582;29;20047;-87
2022/09/08 03:54:54;;;;;;;8.23;5.53;;;16.80;99.90;;;;;;4773952;30;20405;-87
2022/09/08 03:57:25;;;;;;;9.07;6.22;;;16.70;99.90;;;;;;4789621;29;20144;-87
2022/09/08 03:59:53;;;;;;;10.10;6.55;;;17.00;99.90;;;;;;4780844;29;20450;-87
2022/09/08 04:02:20;;;;;;;8.60;6.57;;;16.70;99.90;;;;;;4789476;29;20059;-87
2022/09/08 04:04:50;;;;;;;8.98;6.07;;;16.70;99.90;;;;;;4773095;29;20055;-88
2022/09/08 04:07:18;;;;;;;9.50;6.13;;;16.70;99.90;;;;;;4773357;30;20047;-87
2022/09/08 04:09:44;;;;;;;8.65;5.47;;;16.70;99.90;;;;;;4772820;29;20051;-88
2022/09/08 04:12:11;;;;;;;8.63;6.18;;;16.70;99.90;;;;;;4772464;30;20047;-87
2022/09/08 04:14:38;;;;;;;11.23;6.82;;;16.70;99.90;;;;;;4774787;29;20047;-87
2022/09/08 04:17:05;;;;;;;11.20;6.97;;;16.70;99.90;;;;;;4795838;29;20047;-87
2022/09/08 04:19:31;;;;;;;9.70;5.68;;;16.70;99.90;;;;;;4789102;29;20051;-88
2022/09/08 04:21:57;;;;;;;9.05;5.95;;;16.70;99.90;;;;;;4788439;29;20100;-88
2022/09/08 04:24:22;;;;;;;10.40;6.55;;;17.10;99.90;;;;;;4797449;29;20129;-88
2022/09/08 04:26:48;;;;;;;10.43;6.35;;;16.70;99.90;;;;;;4790335;29;20451;-87
2022/09/08 04:29:15;;;;;;;11.32;7.43;;;17.00;99.90;;;;;;4773052;30;20504;-85
2022/09/08 04:31:42;;;;;;;14.43;8.82;;;16.80;99.90;;;;;;4772040;29;20054;-86
2022/09/08 04:34:08;;;;;;;11.27;7.90;;;16.70;99.90;;;;;;4788768;29;20075;-87
2022/09/08 04:36:34;;;;;;;10.77;7.40;;;16.70;99.90;;;;;;4797342;29;20074;-86
2022/09/08 04:39:00;;;;;;;12.45;7.70;;;16.70;99.90;;;;;;4772320;29;20092;-87
2022/09/08 04:41:29;;;;;;;9.90;6.90;;;17.10;99.90;;;;;;4788101;29;20039;-87
2022/09/08 04:43:56;;;;;;;9.98;6.55;;;16.80;99.90;;;;;;4771985;29;20055;-86
2022/09/08 04:46:22;;;;;;;7.38;5.55;;;16.70;99.90;;;;;;4777415;29;20051;-86
2022/09/08 04:48:48;;;;;;;7.25;5.07;;;16.80;99.90;;;;;;4775844;29;20054;-86
2022/09/08 04:51:17;;;;;;;7.57;5.15;;;16.80;99.90;;;;;;4789492;29;20046;-87
2022/09/08 04:53:44;;;;;;;10.18;5.80;;;16.60;99.90;;;;;;4791351;29;20047;-86
2022/09/08 04:56:11;;;;;;;7.45;5.20;;;16.70;99.90;;;;;;4771612;29;20051;-86
2022/09/08 04:58:39;;;;;;;10.82;6.57;;;16.80;99.90;;;;;;4788851;29;20047;-87
2022/09/08 05:01:11;;;;;;;9.10;5.38;;;16.80;99.90;;;;;;4779398;29;20059;-87
2022/09/08 05:03:38;;;;;;;9.00;5.65;;;16.80;99.90;;;;;;4785161;29;20520;-87
2022/09/08 05:06:05;;;;;;;9.48;6.38;;;16.90;99.90;;;;;;4779390;29;20055;-85
2022/09/08 05:08:31;;;;;;;11.73;7.18;;;16.80;99.90;;;;;;4772237;30;20051;-85
2022/09/08 05:10:58;;;;;;;13.48;8.20;;;16.80;99.90;;;;;;4771675;29;20131;-87
2022/09/08 05:13:24;;;;;;;12.10;7.90;;;16.90;99.90;;;;;;4787595;29;20112;-86
2022/09/08 05:15:49;;;;;;;10.52;7.38;;;16.90;99.90;;;;;;4772293;30;20401;-85
2022/09/08 05:18:15;;;;;;;11.18;6.90;;;16.90;99.90;;;;;;4788684;29;20051;-86
2022/09/08 05:20:41;;;;;;;11.68;7.93;;;16.90;99.90;;;;;;4786552;29;20100;-85
2022/09/08 05:23:06;;;;;;;13.82;8.18;;;16.90;99.90;;;;;;4778388;29;20512;-84
2022/09/08 05:25:32;;;;;;;12.35;8.35;;;16.90;99.90;;;;;;4772205;30;20079;-85
2022/09/08 05:27:58;;;;;;;9.45;6.57;;;16.90;99.90;;;;;;4776866;29;20408;-86
2022/09/08 05:30:24;;;;;;;12.52;7.22;;;17.00;99.90;;;;;;4784856;29;20104;-86
2022/09/08 05:32:49;;;;;;;9.52;5.95;;;16.90;99.90;;;;;;4771620;30;20059;-85
2022/09/08 05:35:15;;;;;;;11.55;8.13;;;17.00;99.90;;;;;;4786871;29;20048;-86
2022/09/08 05:37:41;;;;;;;16.73;11.50;;;17.00;99.90;;;;;;4771668;30;20058;-86
2022/09/08 05:40:07;;;;;;;13.90;9.13;;;17.00;99.90;;;;;;4771422;30;20051;-84
2022/09/08 05:42:33;;;;;;;13.23;8.77;;;17.10;99.90;;;;;;4771733;29;20050;-86
2022/09/08 05:44:58;;;;;;;16.77;10.60;;;16.80;99.90;;;;;;4772289;30;20112;-85
2022/09/08 05:47:24;;;;;;;12.90;9.35;;;17.10;99.90;;;;;;4771615;29;20366;-86
2022/09/08 05:49:50;;;;;;;12.10;8.40;;;17.10;99.90;;;;;;4771230;30;20085;-85
2022/09/08 05:52:16;;;;;;;11.70;7.68;;;17.10;99.90;;;;;;4803093;29;20042;-85
2022/09/08 05:54:42;;;;;;;11.15;8.00;;;17.20;99.90;;;;;;4778159;29;20055;-85
2022/09/08 05:57:07;;;;;;;13.02;8.57;;;17.10;99.90;;;;;;4787293;29;20190;-86
2022/09/08 05:59:34;;;;;;;12.23;8.20;;;17.20;99.90;;;;;;4781038;29;20066;-86
2022/09/08 06:02:00;;;;;;;11.95;7.20;;;17.20;99.90;;;;;;4788003;29;20047;-87
2022/09/08 06:07:10;;;;;;;14.30;9.95;;;17.30;99.90;;;;;;4806973;24;20061;-87
2022/09/08 06:09:48;;;;;;;13.48;8.85;;;17.30;99.90;;;;;;4804255;29;20147;-88
2022/09/08 06:12:19;;;;;;;10.55;7.22;;;17.30;99.90;;;;;;4787654;29;20088;-88
2022/09/08 06:14:48;;;;;;;12.02;7.55;;;17.30;99.90;;;;;;4788217;29;20047;-86
2022/09/08 06:17:13;;;;;;;10.63;7.18;;;17.40;99.90;;;;;;4806983;29;20054;-87
2022/09/08 06:19:42;;;;;;;8.82;6.15;;;17.30;99.90;;;;;;4801919;29;20036;-87
2022/09/08 06:22:08;;;;;;;14.55;10.23;;;17.40;99.90;;;;;;4791291;29;20062;-89
2022/09/08 06:25:02;;;;;;;11.88;8.00;;;17.40;99.90;;;;;;4791958;29;20046;-87
2022/09/08 06:28:05;;;;;;;10.98;6.72;;;17.40;99.90;;;;;;4779157;29;20039;-87
2022/09/08 06:30:34;;;;;;;13.30;8.82;;;17.50;99.90;;;;;;4783003;30;20047;-86
2022/09/08 06:33:10;;;;;;;17.92;11.30;;;17.40;99.90;;;;;;4791501;29;20059;-86
2022/09/08 06:36:17;;;;;;;19.23;11.20;;;17.50;99.90;;;;;;4784545;29;20507;-86
2022/09/08 06:38:54;;;;;;;23.20;15.70;;;17.50;99.90;;;;;;4680212;30;20045;-87
2022/09/08 06:41:26;;;;;;;15.63;10.82;;;17.50;99.90;;;;;;4697728;30;20096;-86
2022/09/08 06:44:04;;;;;;;17.10;10.52;;;17.50;99.90;;;;;;4690918;30;20061;-88
2022/09/08 06:46:37;;;;;;;12.23;8.57;;;17.10;99.90;;;;;;4703839;30;20261;-90
2022/09/08 06:49:03;;;;;;;12.70;8.80;;;17.50;99.90;;;;;;4687113;30;20099;-90
2022/09/08 06:51:42;;;;;;;12.32;7.93;;;17.50;99.90;;;;;;4685087;30;20065;-87
2022/09/08 06:54:16;;;;;;;10.15;7.63;;;17.50;99.90;;;;;;4685160;30;20664;-87
2022/09/08 06:56:57;;;;;;;8.50;5.63;;;17.50;99.90;;;;;;4683726;30;20057;-87
2022/09/08 06:59:53;;;;;;;7.32;4.93;;;17.50;99.90;;;;;;4685022;30;20308;-87
2022/09/08 07:02:24;;;;;;;15.90;9.43;;;17.50;99.90;;;;;;4694380;30;20116;-86
2022/09/08 07:05:28;;;;;;;25.63;17.13;;;17.60;99.90;;;;;;4684618;30;20148;-88
2022/09/08 07:09:09;;;;;;;;;;;;;;;;;;;;;
2022/09/08 07:17:53;;;;;;;16.63;11.27;;;17.60;99.90;;;;;;4780517;30;20055;-85
2022/09/08 07:20:20;;;;;;;16.15;11.10;;;17.50;99.90;;;;;;4781815;30;20405;-85
2022/09/08 07:22:55;;;;;;;15.23;9.80;;;17.50;99.90;;;;;;4776431;30;20452;-85
2022/09/08 07:25:40;;;;;;;11.30;7.75;;;17.50;99.90;;;;;;4765971;30;20536;-85
2022/09/08 07:28:23;;;;;;;10.13;6.68;;;17.50;99.90;;;;;;4763062;30;20058;-86
2022/09/08 07:31:04;;;;;;;12.30;8.68;;;17.50;99.90;;;;;;4763294;30;20056;-88
2022/09/08 07:33:45;;;;;;;10.82;7.00;;;17.50;99.90;;;;;;4759444;30;20066;-88
2022/09/08 07:36:38;;;;;;;11.45;7.82;;;17.40;99.90;;;;;;4764482;30;20142;-85
2022/09/08 07:39:19;;;;;;;9.57;6.85;;;17.40;99.90;;;;;;4768536;30;20130;-87
2022/09/08 07:41:49;;;;;;;11.93;7.40;;;17.40;99.90;;;;;;4789823;30;20051;-85
2022/09/08 07:44:17;;;;;;;9.65;6.80;;;17.40;99.90;;;;;;4764576;30;20055;-86
2022/09/08 07:47:09;;;;;;;9.88;6.78;;;17.40;99.90;;;;;;4748015;30;20040;-85
2022/09/08 07:49:57;;;;;;;12.27;7.22;;;17.40;99.90;;;;;;4765292;30;20057;-86
2022/09/08 07:52:28;;;;;;;9.82;6.85;;;17.40;99.90;;;;;;4757946;30;20134;-85
2022/09/08 07:55:22;;;;;;;9.68;6.22;;;17.40;99.90;;;;;;4781412;30;20122;-85
2022/09/08 07:57:56;;;;;;;9.00;5.80;;;17.40;99.90;;;;;;4778544;30;20090;-85
2022/09/08 08:00:25;;;;;;;10.60;6.65;;;17.20;99.90;;;;;;4769330;30;20051;-87
2022/09/08 08:03:26;;;;;;;9.73;6.45;;;17.40;99.90;;;;;;4762333;30;20051;-85
2022/09/08 08:05:58;;;;;;;9.10;6.40;;;17.30;99.90;;;;;;4755625;30;20055;-85
2022/09/08 08:08:24;;;;;;;10.32;7.15;;;17.40;99.90;;;;;;4755289;30;20051;-85
2022/09/08 08:11:14;;;;;;;12.15;8.57;;;17.40;99.90;;;;;;4755482;30;20085;-85
2022/09/08 08:14:04;;;;;;;18.92;12.95;;;17.40;99.90;;;;;;4755243;30;20059;-86
2022/09/08 08:16:41;;;;;;;12.75;9.35;;;17.40;99.90;;;;;;4755085;30;20066;-85
2022/09/08 08:19:45;;;;;;;10.55;7.28;;;17.50;99.90;;;;;;4755611;30;20142;-87
2022/09/08 08:22:32;;;;;;;11.77;8.70;;;17.40;99.90;;;;;;4755857;30;20498;-85
2022/09/08 08:25:09;;;;;;;13.90;7.85;;;17.40;99.90;;;;;;4771520;30;20048;-86
2022/09/08 08:27:38;;;;;;;12.00;8.45;;;17.40;99.90;;;;;;4755439;30;20074;-87
2022/09/08 08:30:17;;;;;;;10.00;6.82;;;17.40;99.90;;;;;;4771246;30;20109;-87
2022/09/08 08:33:16;;;;;;;8.05;5.70;;;17.40;99.90;;;;;;4755562;30;20051;-86
2022/09/08 08:36:00;;;;;;;9.40;6.32;;;17.30;99.90;;;;;;4771217;30;20426;-88
2022/09/08 08:38:45;;;;;;;13.02;7.10;;;17.40;99.90;;;;;;4770724;30;20044;-86
2022/09/08 08:41:35;;;;;;;8.85;5.50;;;17.40;99.90;;;;;;4754835;30;20058;-86
2022/09/08 08:44:22;;;;;;;7.60;5.13;;;17.40;99.90;;;;;;4771165;30;20059;-85
2022/09/08 08:46:50;;;;;;;6.47;4.55;;;17.40;99.90;;;;;;4754670;30;20122;-86
2022/09/08 08:49:41;;;;;;;6.55;4.32;;;17.50;99.90;;;;;;4754874;30;20112;-86
2022/09/08 08:52:09;;;;;;;6.38;3.78;;;17.50;99.90;;;;;;4755037;30;20067;-86
2022/09/08 08:55:02;;;;;;;6.38;4.18;;;17.60;99.90;;;;;;4771009;30;20043;-85
2022/09/08 08:57:40;;;;;;;4.93;3.63;;;17.60;99.90;;;;;;4771169;30;20110;-85
2022/09/08 09:00:22;;;;;;;5.20;4.13;;;17.60;99.90;;;;;;4770423;30;20043;-86
2022/09/08 09:02:56;;;;;;;7.15;4.85;;;17.70;99.90;;;;;;4754502;30;20052;-87
2022/09/08 09:05:51;;;;;;;6.05;4.18;;;17.80;99.90;;;;;;4754595;30;20070;-86
2022/09/08 09:08:51;;;;;;;6.80;4.22;;;17.90;99.90;;;;;;4753482;30;20628;-87
2022/09/08 09:11:36;;;;;;;4.43;3.33;;;17.90;99.90;;;;;;4753594;30;20051;-86
2022/09/08 09:14:07;;;;;;;5.32;4.00;;;18.00;99.90;;;;;;4753793;30;20134;-86
2022/09/08 09:16:53;;;;;;;5.55;3.85;;;18.10;99.90;;;;;;4767843;30;20655;-85
2022/09/08 09:20:01;;;;;;;6.65;4.50;;;18.10;99.90;;;;;;4768336;30;20072;-88
2022/09/08 09:22:54;;;;;;;10.45;6.45;;;18.10;99.90;;;;;;4753510;30;20089;-86
2022/09/08 09:25:27;;;;;;;10.75;7.80;;;18.10;99.90;;;;;;4767933;30;20113;-86
2022/09/08 09:28:14;;;;;;;9.05;6.90;;;18.10;99.90;;;;;;4753514;30;20115;-86
2022/09/08 09:31:00;;;;;;;8.73;6.22;;;18.00;99.90;;;;;;4752899;29;20549;-86
2022/09/08 09:33:28;;;;;;;9.00;5.30;;;18.00;99.90;;;;;;4753095;30;20060;-87
2022/09/08 09:36:53;;;;;;;7.45;5.28;;;18.00;99.90;;;;;;4752952;30;20142;-87
2022/09/08 09:39:42;;;;;;;7.70;5.13;;;18.00;99.90;;;;;;4732572;30;20068;-86
2022/09/08 09:42:28;;;;;;;8.07;6.15;;;18.00;99.90;;;;;;4717888;30;20049;-87
2022/09/08 09:45:12;;;;;;;7.25;4.90;;;18.00;99.90;;;;;;4722306;30;20573;-87
2022/09/08 09:47:50;;;;;;;6.85;4.88;;;18.00;99.90;;;;;;4715305;30;20049;-87
2022/09/08 09:50:47;;;;;;;5.75;4.05;;;18.10;99.90;;;;;;4700452;30;20092;-86
2022/09/08 09:53:50;;;;;;;7.45;5.13;;;18.10;99.90;;;;;;4700686;30;20122;-87
2022/09/08 09:56:35;;;;;;;7.70;4.68;;;18.20;99.90;;;;;;4697700;30;20068;-87
2022/09/08 09:59:15;;;;;;;5.07;3.58;;;18.30;99.90;;;;;;4700747;30;20139;-86
2022/09/08 10:02:08;;;;;;;4.80;3.00;;;18.40;99.90;;;;;;4714820;30;20527;-86
2022/09/08 10:04:52;;;;;;;3.67;2.50;;;18.40;99.90;;;;;;4714446;30;20073;-87
2022/09/08 10:07:24;;;;;;;3.95;2.97;;;18.40;99.90;;;;;;4715237;30;20060;-86
2022/09/08 10:10:11;;;;;;;4.43;3.13;;;18.50;99.90;;;;;;4738156;30;20111;-87
2022/09/08 10:13:24;;;;;;;4.72;3.47;;;18.50;99.90;;;;;;4771951;30;20055;-85
2022/09/08 10:16:13;;;;;;;3.85;3.10;;;18.50;99.90;;;;;;4714540;30;20396;-84
2022/09/08 10:18:57;;;;;;;3.75;2.53;;;18.40;99.90;;;;;;4715121;30;20053;-84
2022/09/08 10:21:44;;;;;;;3.60;2.67;;;18.40;99.90;;;;;;4700379;30;20515;-86
2022/09/08 10:24:10;;;;;;;5.20;2.97;;;18.30;99.90;;;;;;4714754;30;20057;-85
2022/09/08 10:26:50;;;;;;;4.13;2.55;;;18.40;99.90;;;;;;4715901;30;20497;-84
2022/09/08 10:29:31;;;;;;;3.40;2.28;;;18.40;99.90;;;;;;4715848;30;20139;-82
2022/09/08 10:32:16;;;;;;;4.00;2.42;;;18.30;99.90;;;;;;4714739;30;20064;-83
2022/09/08 10:35:03;;;;;;;3.65;2.10;;;18.30;99.90;;;;;;4700109;30;20096;-84
2022/09/08 10:37:32;;;;;;;3.70;2.20;;;18.30;99.90;;;;;;4700512;30;20068;-86
2022/09/08 10:40:19;;;;;;;3.17;2.22;;;18.30;99.90;;;;;;4714837;30;20135;-85
2022/09/08 10:42:48;;;;;;;2.50;1.85;;;18.30;99.90;;;;;;4714334;30;20085;-84
2022/09/08 10:45:24;;;;;;;2.72;1.75;;;18.30;99.90;;;;;;4714756;30;20514;-84
2022/09/08 10:48:07;;;;;;;3.50;2.20;;;18.30;99.90;;;;;;4787442;30;20070;-85
2022/09/08 10:50:35;;;;;;;2.85;1.98;;;18.30;99.90;;;;;;4786450;30;20050;-84
2022/09/08 10:53:36;;;;;;;2.90;1.98;;;18.30;99.90;;;;;;4772274;30;20062;-86
2022/09/08 10:56:07;;;;;;;7.38;2.42;;;18.30;99.90;;;;;;4786629;29;20095;-85
2022/09/08 10:58:51;;;;;;;2.53;2.00;;;18.30;99.90;;;;;;4770552;30;20059;-86
2022/09/08 11:01:38;;;;;;;3.90;2.55;;;18.30;99.90;;;;;;4757128;30;20438;-84
2022/09/08 11:04:35;;;;;;;2.38;1.67;;;18.30;99.90;;;;;;4766731;29;20087;-83
2022/09/08 11:07:53;;;;;;;3.42;1.60;;;18.10;99.90;;;;;;4764940;29;20065;-84
2022/09/08 11:10:56;;;;;;;4.60;2.25;;;18.30;99.90;;;;;;4782592;30;20054;-85
2022/09/08 11:13:51;;;;;;;2.75;1.88;;;18.40;99.90;;;;;;4756543;30;20401;-87
2022/09/08 11:16:55;;;;;;;3.28;2.10;;;18.40;99.90;;;;;;4701926;30;20060;-86
2022/09/08 11:19:32;;;;;;;2.47;1.60;;;18.30;99.90;;;;;;4702304;30;20068;-84
2022/09/08 11:22:31;;;;;;;3.05;1.50;;;18.80;99.90;;;;;;4716451;30;20068;-87
2022/09/08 11:25:41;;;;;;;1.10;0.90;;;18.30;99.90;;;;;;4706476;30;20054;-87
2022/09/08 11:28:19;;;;;;;0.80;0.70;;;18.80;99.90;;;;;;4701648;30;20088;-86
2022/09/08 11:31:18;;;;;;;2.30;0.70;;;18.20;99.90;;;;;;4688259;30;20063;-87
2022/09/08 11:34:14;;;;;;;0.98;0.70;;;18.20;99.90;;;;;;4687967;30;20294;-87
2022/09/08 11:36:59;;;;;;;1.02;0.70;;;18.10;99.90;;;;;;4709012;30;20060;-86
2022/09/08 11:46:50;;;;;;;1.02;0.50;;;18.10;99.90;;;;;;4647009;30;20070;-87
2022/09/08 11:49:25;;;;;;;0.63;0.50;;;18.10;99.90;;;;;;4647592;30;20097;-86
2022/09/08 11:52:07;;;;;;;0.50;0.40;;;18.10;99.90;;;;;;4633880;30;20058;-86
2022/09/08 11:55:00;;;;;;;0.63;0.40;;;18.00;99.90;;;;;;4684387;30;20096;-85
2022/09/08 11:57:32;;;;;;;0.80;0.52;;;18.00;99.90;;;;;;4686747;30;20650;-86
2022/09/08 12:00:09;;;;;;;0.80;0.40;;;18.00;99.90;;;;;;4699193;30;20050;-87
2022/09/08 12:02:56;;;;;;;0.73;0.32;;;18.00;99.90;;;;;;4684809;30;20077;-86
2022/09/08 12:05:43;;;;;;;0.82;0.40;;;17.90;99.90;;;;;;4693215;30;20119;-86
2022/09/08 12:08:18;;;;;;;0.70;0.40;;;17.70;99.90;;;;;;4693347;30;20046;-86
2022/09/08 12:11:02;;;;;;;1.30;0.40;;;17.80;99.90;;;;;;4698770;30;20068;-87
2022/09/08 12:14:02;;;;;;;0.93;0.30;;;17.80;99.90;;;;;;4683946;30;20061;-85
2022/09/08 12:16:49;;;;;;;0.90;0.30;;;17.70;99.90;;;;;;4684255;30;20395;-86
2022/09/08 12:19:27;;;;;;;1.02;0.35;;;17.70;99.90;;;;;;4718402;30;20052;-86
2022/09/08 12:22:34;;;;;;;0.20;0.20;;;17.70;99.90;;;;;;4766394;30;20054;-85
2022/09/08 12:25:17;;;;;;;0.60;0.30;;;17.60;99.90;;;;;;4746355;30;20648;-86
2022/09/08 12:28:13;;;;;;;0.70;0.30;;;17.60;99.90;;;;;;4753355;30;20079;-86
2022/09/08 12:31:00;;;;;;;0.55;0.30;;;17.70;99.90;;;;;;4754342;30;20430;-86
2022/09/08 12:33:57;;;;;;;1.38;0.30;;;17.60;99.90;;;;;;4768668;30;20055;-85
2022/09/08 12:36:43;;;;;;;0.40;0.30;;;17.60;99.90;;;;;;4764989;30;20059;-86
2022/09/08 12:39:32;;;;;;;0.73;0.38;;;17.60;99.90;;;;;;4762575;30;20047;-86
2022/09/08 12:42:00;;;;;;;0.30;0.30;;;17.60;99.90;;;;;;4752237;30;20048;-87
2022/09/08 12:44:48;;;;;;;1.95;0.40;;;17.70;99.90;;;;;;4746867;30;20055;-86
2022/09/08 12:47:38;;;;;;;1.13;0.30;;;17.70;99.90;;;;;;4746903;30;20090;-88
2022/09/08 12:50:48;;;;;;;0.30;0.30;;;17.70;99.90;;;;;;4768034;30;20076;-86
2022/09/08 12:53:32;;;;;;;1.60;0.40;;;17.70;99.90;;;;;;4761695;30;20532;-86
2022/09/08 12:56:03;;;;;;;0.68;0.30;;;17.70;99.90;;;;;;4760855;30;20067;-86
2022/09/08 12:58:47;;;;;;;1.23;0.40;;;17.70;99.90;;;;;;4770181;30;20083;-88
2022/09/08 13:01:40;;;;;;;0.40;0.30;;;17.80;99.90;;;;;;4752529;30;20394;-86
2022/09/08 13:04:44;;;;;;;1.10;0.20;;;17.80;99.90;;;;;;4746168;30;20060;-85
2022/09/08 13:07:24;;;;;;;0.55;0.28;;;17.80;99.90;;;;;;4733310;30;20072;-86
2022/09/08 13:10:09;;;;;;;0.90;0.35;;;17.90;99.90;;;;;;4748904;30;20065;-86
2022/09/08 13:12:49;;;;;;;0.60;0.40;;;17.80;99.90;;;;;;4735031;30;20089;-86
2022/09/08 13:15:24;;;;;;;1.15;0.47;;;17.90;99.90;;;;;;4739723;30;20061;-86
2022/09/08 13:18:22;;;;;;;2.47;0.55;;;17.90;99.90;;;;;;4749489;30;20051;-86
2022/09/08 13:21:03;;;;;;;0.38;0.32;;;17.80;99.90;;;;;;4709951;30;20053;-88
2022/09/08 13:23:45;;;;;;;1.35;0.40;;;17.90;99.90;;;;;;4685682;30;20111;-86
2022/09/08 13:26:37;;;;;;;0.40;0.30;;;17.90;99.90;;;;;;4712668;30;20599;-86
2022/09/08 13:29:13;;;;;;;1.65;0.38;;;17.90;99.90;;;;;;4713786;30;20107;-86
2022/09/08 13:32:04;;;;;;;0.45;0.30;;;17.90;99.90;;;;;;4698528;30;20053;-85
2022/09/08 13:35:07;;;;;;;0.40;0.40;;;18.00;99.90;;;;;;4696374;30;20112;-86
2022/09/08 13:38:43;;;;;;;1.67;0.52;;;17.90;99.90;;;;;;4683480;30;20132;-90
2022/09/08 13:52:17;;;;;;;0.60;0.40;;;18.10;99.90;;;;;;5187373;24;20056;-87
2022/09/08 14:03:39;;;;;;;2.13;0.60;;;18.30;99.90;;;;;;4808562;24;20119;-91
2022/09/08 14:32:06;;;;;;;1.30;0.70;;;18.60;99.90;;;;;;4756397;30;20213;-85
2022/09/08 14:34:51;;;;;;;1.60;0.77;;;18.60;99.90;;;;;;4735533;30;20473;-89
2022/09/08 14:37:23;;;;;;;1.70;1.00;;;18.70;99.90;;;;;;4753455;30;20056;-87
2022/09/08 14:39:54;;;;;;;1.48;0.93;;;18.60;99.90;;;;;;4745915;30;20052;-86